Home   Weather   USA   Talladega   Past weeks
Flag for USA

Past Weather in Talladega, Alabama, USA — Yesterday and Last 2 Weeks

Currently: 66 °F. Partly cloudy. (Weather station: Talladega Municipal Airport, USA). See more current weather

Past Weather in Talladega — Graph

°F

Talladega Temperature Yesterday

Maximum temperature yesterday: 84 °F (at 3:15 pm)
Minimum temperature yesterday: 68 °F (at 11:35 pm)
Average temperature yesterday: 75 °F

High & Low Weather Summary for the Past Weeks

 TemperatureHumidityPressure
High92 °F (Jul 29, 3:35 pm)100% (Jul 20, 4:15 am)30.17 "Hg (Jul 20, 4:15 am)
Low65 °F (Aug 4, 4:15 am)46% (Jul 29, 5:15 pm)29.94 "Hg (Jul 20, 3:55 pm)
Average78 °F85%30.03 "Hg
* Reported Jul 20 4:15 am — Aug 4 4:55 am, Talladega. Weather by CustomWeather, © 2021

Note: Actual official high and low records may vary slightly from our data, if they occured in-between our weather recording intervals... More about our weather records

Talladega Weather History for the Previous 24 Hours

Scroll right to see more
 ConditionsComfort  
Time TempWeatherWind HumidityBarometerVisibility
4:55 am
Wed, Aug 4
65 °FPassing clouds.No wind98%30.00 "Hg10 mi
4:35 am65 °FPassing clouds.No wind98%30.00 "Hg10 mi
4:15 am65 °FPassing clouds.No wind98%29.99 "Hg7 mi
3:55 am66 °FPassing clouds.No wind97%29.99 "Hg10 mi
3:35 am66 °FPassing clouds.No wind99%29.99 "Hg7 mi
3:15 am65 °FClear.No wind99%29.98 "Hg7 mi
2:55 am66 °FClear.No wind99%29.98 "Hg7 mi
2:35 am66 °FClear.No wind99%29.98 "Hg7 mi
2:15 am66 °FClear.No wind99%29.98 "Hg7 mi
1:55 am66 °FClear.No wind98%29.98 "Hg7 mi
1:35 am66 °FClear.No wind99%29.98 "Hg7 mi
12:55 am67 °FClear.No wind99%29.99 "Hg7 mi
12:35 am68 °FClear.No wind98%29.99 "Hg7 mi
12:15 am67 °FClear.No wind99%29.99 "Hg7 mi
11:55 pm
Tue, Aug 3
69 °FClear.No wind93%29.99 "Hg10 mi
11:35 pm68 °FClear.No wind97%29.99 "Hg10 mi
11:15 pm69 °FPassing clouds.No wind95%29.99 "Hg10 mi
10:55 pm70 °FPassing clouds.No wind95%29.99 "Hg10 mi
10:35 pm70 °FPassing clouds.No wind93%29.99 "Hg10 mi
10:15 pm69 °FClear.No wind96%29.99 "Hg10 mi
9:55 pm69 °FPassing clouds.No wind95%29.99 "Hg10 mi
9:35 pm70 °FClear.No wind92%29.99 "Hg10 mi
9:15 pm71 °FClear.No wind90%29.98 "Hg10 mi
8:35 pm74 °FClear.No wind77%29.98 "Hg10 mi
8:15 pm75 °FClear.No wind74%29.97 "Hg10 mi
7:55 pm76 °FClear.No wind70%29.97 "Hg10 mi
6:55 pm81 °FSunny.3 mph56%29.96 "Hg10 mi
6:15 pm82 °FSunny.6 mph52%29.95 "Hg10 mi
5:55 pm83 °FSunny.6 mph52%29.95 "Hg10 mi
5:35 pm83 °FSunny.6 mph50%29.95 "Hg10 mi
5:15 pm83 °FSunny.5 mph50%29.95 "Hg10 mi
4:55 pm84 °FSunny.6 mph49%29.95 "Hg10 mi
4:35 pm84 °FSunny.7 mph48%29.95 "Hg10 mi
4:15 pm84 °FSunny.8 mph51%29.95 "Hg10 mi
3:55 pm84 °FSunny.9 mph49%29.95 "Hg10 mi
3:35 pm83 °FScattered clouds.8 mph49%29.96 "Hg10 mi
3:15 pm84 °FSunny.3 mph51%29.96 "Hg10 mi
2:55 pm84 °FSunny.6 mph52%29.96 "Hg10 mi
2:35 pm83 °FScattered clouds.6 mph55%29.97 "Hg10 mi
1:55 pm83 °FSunny.No wind52%29.97 "Hg10 mi
1:35 pm83 °FSunny.6 mph54%29.98 "Hg10 mi
12:55 pm82 °FBroken clouds.7 mph55%29.98 "Hg10 mi
12:35 pm81 °FBroken clouds.7 mph58%29.99 "Hg10 mi
12:15 pm82 °FScattered clouds.7 mph60%29.99 "Hg10 mi
11:55 am82 °FSunny.5 mph61%29.99 "Hg10 mi
11:35 am82 °FSunny.7 mph62%29.99 "Hg10 mi
11:15 am81 °FSunny.7 mph64%30.00 "Hg10 mi
10:55 am81 °FSunny.7 mph66%30.00 "Hg10 mi
10:35 am80 °FScattered clouds.5 mph69%30.00 "Hg10 mi
10:15 am79 °FPartly sunny.5 mph73%30.00 "Hg10 mi
9:55 am77 °FScattered clouds.No wind81%30.00 "Hg10 mi
9:35 am74 °FSunny.No wind87%30.00 "Hg7 mi
9:15 am74 °FScattered clouds.No wind91%30.00 "Hg7 mi
8:55 am73 °FScattered clouds.No wind94%30.00 "Hg7 mi
8:35 am72 °FPartly sunny.5 mph100%30.00 "Hg7 mi
8:15 am71 °FFog.No wind100%30.00 "Hg5 mi
7:55 am71 °FFog.No wind99%30.00 "Hg2 mi
7:35 am71 °FFog.No wind99%29.99 "Hg1 mi
7:15 am70 °FFog.No wind99%29.99 "Hg1 mi
6:55 am70 °FFog.No wind100%29.98 "Hg0 mi
6:35 am70 °FFog.No wind100%29.99 "Hg0 mi
Weather by CustomWeather, © 2021

See weather overview